Летающим высоко и низко: ПОГОДА В АЭРОПОРТАХ

Datasource: http://meteocentre.com/cgi-bin/get_taf?STN=UUEE
    за последний срок по а/п  (сейчас 11:12 мск)
UUEE на Метеоцентре                GFS-прогноз по UUEE                   Погода сейчас
UUEE: 6

Line #10 1 69: TAF UUEE 211059Z 2112/2212 08005MPS 9999 BKN011 TX25/2112Z TN18/2201Z

211059Z Авиапрогноз Москва (Шереметьево), составлен 21 июля 14:59 мск:
с 15:00 (21 июля) до 15:00 (22 июля) ветер 80° (В) 5 м/c; видимость > 10 км; облачн. значительная 330 м; [TX25/2112Z] [TN18/2201Z]

Line #11 2 63: TEMPO 2112/2120 11008G15MPS 3100 -TSRA BKN015CB TEMPO 2120/2207

Временами с 15:00 (21 июля) до 23:00 (21 июля) ветер 110° (ВЮВ) 8 м/c; порывы 15 м/c; видимость 3100 м; слаб. гроза и дождь; облачн. значительная 450 м кучево-дождевая;
Временами с 23:00 (21 июля) до 10:00 (22 июля)

Line #12 3 65: -SHRA SCT004 SCT015CB TEMPO 2207/2212 06009G16MPS -SHRA SCT020CB
слаб. ливневой дождь; облачн. разбросанная 120 м; разбросанная 450 м кучево-дождевая;
Временами с 10:00 (22 июля) до 15:00 (22 июля) ветер 60° (ВСВ) 9 м/c; порывы 16 м/c; слаб. ливневой дождь; облачн. разбросанная 600 м кучево-дождевая;

Line #13 4 58: TAF UUEE 211059Z 2112/2212 08005MPS 9999 BKN011 TX25/2112Z

Авиапрогноз Москва (Шереметьево), составлен 21 июля 14:59 мск:
с 15:00 (21 июля) до 15:00 (22 июля) ветер 80° (В) 5 м/c; видимость > 10 км; облачн. значительная 330 м; [TX25/2112Z]

Line #14 5 10: TN18/2201Z
[TN18/2201Z]

Line #15 6 47: TEMPO 2112/2120 11008G15MPS 3100 -TSRA BKN015CB

Временами с 15:00 (21 июля) до 23:00 (21 июля) ветер 110° (ВЮВ) 8 м/c; порывы 15 м/c; видимость 3100 м; слаб. гроза и дождь; облачн. значительная 450 м кучево-дождевая;

Line #16 7 37: TEMPO 2120/2207 -SHRA SCT004 SCT015CB

Временами с 23:00 (21 июля) до 10:00 (22 июля) слаб. ливневой дождь; облачн. разбросанная 120 м; разбросанная 450 м кучево-дождевая;

Line #17 8 43: TEMPO 2207/2212 06009G16MPS -SHRA SCT020CB

Временами с 10:00 (22 июля) до 15:00 (22 июля) ветер 60° (ВСВ) 9 м/c; порывы 16 м/c; слаб. ливневой дождь; облачн. разбросанная 600 м кучево-дождевая;

Line #18 9 69: TAF UUEE 211059Z 2112/2212 08005MPS 9999 BKN011 TX25/2112Z TN18/2201Z

Авиапрогноз Москва (Шереметьево), составлен 21 июля 14:59 мск:
с 15:00 (21 июля) до 15:00 (22 июля) ветер 80° (В) 5 м/c; видимость > 10 км; облачн. значительная 330 м; [TX25/2112Z] [TN18/2201Z]

Line #19 10 47: TEMPO 2112/2120 11008G15MPS 3100 -TSRA BKN015CB

Временами с 15:00 (21 июля) до 23:00 (21 июля) ветер 110° (ВЮВ) 8 м/c; порывы 15 м/c; видимость 3100 м; слаб. гроза и дождь; облачн. значительная 450 м кучево-дождевая;

Line #20 11 37: TEMPO 2120/2207 -SHRA SCT004 SCT015CB

Временами с 23:00 (21 июля) до 10:00 (22 июля) слаб. ливневой дождь; облачн. разбросанная 120 м; разбросанная 450 м кучево-дождевая;

Line #21 12 43: TEMPO 2207/2212 06009G16MPS -SHRA SCT020CB

Временами с 10:00 (22 июля) до 15:00 (22 июля) ветер 60° (ВСВ) 9 м/c; порывы 16 м/c; слаб. ливневой дождь; облачн. разбросанная 600 м кучево-дождевая;